sensor_id;sensor_type;location;lat;lon;timestamp;temperature;humidity
56478;DHT22;42382;53.210;5.772;2024-02-26T00:00:35;3.80;95.50
56478;DHT22;42382;53.210;5.772;2024-02-26T00:03:01;3.80;95.50
56478;DHT22;42382;53.210;5.772;2024-02-26T00:05:26;3.70;95.50
56478;DHT22;42382;53.210;5.772;2024-02-26T00:07:52;3.70;95.50
56478;DHT22;42382;53.210;5.772;2024-02-26T00:10:18;3.80;95.50
56478;DHT22;42382;53.210;5.772;2024-02-26T00:12:43;3.70;95.50
56478;DHT22;42382;53.210;5.772;2024-02-26T00:15:10;3.70;95.50
56478;DHT22;42382;53.210;5.772;2024-02-26T00:17:36;3.80;95.50
56478;DHT22;42382;53.210;5.772;2024-02-26T00:20:02;3.70;95.50
56478;DHT22;42382;53.210;5.772;2024-02-26T00:22:30;3.70;95.50
56478;DHT22;42382;53.210;5.772;2024-02-26T00:24:56;3.70;95.50
56478;DHT22;42382;53.210;5.772;2024-02-26T00:27:22;3.70;95.50
56478;DHT22;42382;53.210;5.772;2024-02-26T00:29:47;3.70;95.60
56478;DHT22;42382;53.210;5.772;2024-02-26T00:32:13;3.70;95.50
56478;DHT22;42382;53.210;5.772;2024-02-26T00:34:39;3.70;95.60
56478;DHT22;42382;53.210;5.772;2024-02-26T00:37:05;3.70;95.60
56478;DHT22;42382;53.210;5.772;2024-02-26T00:39:30;3.70;95.60
56478;DHT22;42382;53.210;5.772;2024-02-26T00:41:56;3.70;95.60
56478;DHT22;42382;53.210;5.772;2024-02-26T00:44:22;3.70;95.60
56478;DHT22;42382;53.210;5.772;2024-02-26T00:46:47;3.70;95.60
56478;DHT22;42382;53.210;5.772;2024-02-26T00:49:13;3.70;95.60
56478;DHT22;42382;53.210;5.772;2024-02-26T00:51:39;3.70;95.60
56478;DHT22;42382;53.210;5.772;2024-02-26T00:54:04;3.60;95.60
56478;DHT22;42382;53.210;5.772;2024-02-26T00:56:30;3.70;95.60
56478;DHT22;42382;53.210;5.772;2024-02-26T00:58:55;3.70;95.70
56478;DHT22;42382;53.210;5.772;2024-02-26T01:01:24;3.60;95.70
56478;DHT22;42382;53.210;5.772;2024-02-26T01:03:49;3.60;95.70
56478;DHT22;42382;53.210;5.772;2024-02-26T01:06:15;3.60;95.70
56478;DHT22;42382;53.210;5.772;2024-02-26T01:08:40;3.60;95.70
56478;DHT22;42382;53.210;5.772;2024-02-26T01:11:06;3.60;95.70
56478;DHT22;42382;53.210;5.772;2024-02-26T01:13:35;3.60;95.70
56478;DHT22;42382;53.210;5.772;2024-02-26T01:16:01;3.60;95.70
56478;DHT22;42382;53.210;5.772;2024-02-26T01:18:27;3.60;95.70
56478;DHT22;42382;53.210;5.772;2024-02-26T01:20:52;3.60;95.70
56478;DHT22;42382;53.210;5.772;2024-02-26T01:23:20;3.50;95.70
56478;DHT22;42382;53.210;5.772;2024-02-26T01:25:45;3.60;95.70
56478;DHT22;42382;53.210;5.772;2024-02-26T01:28:11;3.50;95.80
56478;DHT22;42382;53.210;5.772;2024-02-26T01:30:37;3.50;95.70
56478;DHT22;42382;53.210;5.772;2024-02-26T01:33:05;3.50;95.80
56478;DHT22;42382;53.210;5.772;2024-02-26T01:35:30;3.60;95.80
56478;DHT22;42382;53.210;5.772;2024-02-26T01:37:56;3.50;95.80
56478;DHT22;42382;53.210;5.772;2024-02-26T01:40:26;3.50;95.80
56478;DHT22;42382;53.210;5.772;2024-02-26T01:42:52;3.50;95.80
56478;DHT22;42382;53.210;5.772;2024-02-26T01:45:18;3.50;95.80
56478;DHT22;42382;53.210;5.772;2024-02-26T01:47:51;3.50;95.80
56478;DHT22;42382;53.210;5.772;2024-02-26T01:50:18;3.60;95.80
56478;DHT22;42382;53.210;5.772;2024-02-26T01:52:45;3.60;95.80
56478;DHT22;42382;53.210;5.772;2024-02-26T01:55:13;3.60;95.80
56478;DHT22;42382;53.210;5.772;2024-02-26T01:57:40;3.60;95.80
56478;DHT22;42382;53.210;5.772;2024-02-26T02:00:07;3.60;95.80
56478;DHT22;42382;53.210;5.772;2024-02-26T02:02:33;3.50;95.80
56478;DHT22;42382;53.210;5.772;2024-02-26T02:05:00;3.50;95.80
56478;DHT22;42382;53.210;5.772;2024-02-26T02:07:26;3.50;95.80
56478;DHT22;42382;53.210;5.772;2024-02-26T02:09:51;3.50;95.90
56478;DHT22;42382;53.210;5.772;2024-02-26T02:12:19;3.60;95.80
56478;DHT22;42382;53.210;5.772;2024-02-26T02:14:44;3.60;95.90
56478;DHT22;42382;53.210;5.772;2024-02-26T02:17:10;3.60;95.90
56478;DHT22;42382;53.210;5.772;2024-02-26T02:19:38;3.60;95.90
56478;DHT22;42382;53.210;5.772;2024-02-26T02:22:04;3.60;95.90
56478;DHT22;42382;53.210;5.772;2024-02-26T02:24:33;3.60;95.80
56478;DHT22;42382;53.210;5.772;2024-02-26T02:26:59;3.50;95.80
56478;DHT22;42382;53.210;5.772;2024-02-26T02:29:24;3.50;95.80
56478;DHT22;42382;53.210;5.772;2024-02-26T02:31:50;3.60;95.80
56478;DHT22;42382;53.210;5.772;2024-02-26T02:34:16;3.50;95.80
56478;DHT22;42382;53.210;5.772;2024-02-26T02:36:52;3.50;95.80
56478;DHT22;42382;53.210;5.772;2024-02-26T02:39:18;3.50;95.80
56478;DHT22;42382;53.210;5.772;2024-02-26T02:41:43;3.50;95.80
56478;DHT22;42382;53.210;5.772;2024-02-26T02:44:09;3.60;95.90
56478;DHT22;42382;53.210;5.772;2024-02-26T02:46:35;3.60;95.80
56478;DHT22;42382;53.210;5.772;2024-02-26T02:49:01;3.60;95.90
56478;DHT22;42382;53.210;5.772;2024-02-26T02:51:27;3.60;95.90
56478;DHT22;42382;53.210;5.772;2024-02-26T02:53:52;3.60;95.90
56478;DHT22;42382;53.210;5.772;2024-02-26T02:56:18;3.60;95.80
56478;DHT22;42382;53.210;5.772;2024-02-26T02:58:44;3.70;95.90
56478;DHT22;42382;53.210;5.772;2024-02-26T03:01:10;3.60;95.80
56478;DHT22;42382;53.210;5.772;2024-02-26T03:03:36;3.70;95.80
56478;DHT22;42382;53.210;5.772;2024-02-26T03:06:02;3.60;95.80
56478;DHT22;42382;53.210;5.772;2024-02-26T03:08:28;3.60;95.80
56478;DHT22;42382;53.210;5.772;2024-02-26T03:10:54;3.70;95.90
56478;DHT22;42382;53.210;5.772;2024-02-26T03:13:22;3.60;95.80
56478;DHT22;42382;53.210;5.772;2024-02-26T03:15:47;3.60;95.80
56478;DHT22;42382;53.210;5.772;2024-02-26T03:18:13;3.60;95.80
56478;DHT22;42382;53.210;5.772;2024-02-26T03:20:38;3.60;95.80
56478;DHT22;42382;53.210;5.772;2024-02-26T03:23:04;3.60;95.80
56478;DHT22;42382;53.210;5.772;2024-02-26T03:25:30;3.60;95.80
56478;DHT22;42382;53.210;5.772;2024-02-26T03:27:55;3.60;95.80
56478;DHT22;42382;53.210;5.772;2024-02-26T03:30:21;3.60;95.80
56478;DHT22;42382;53.210;5.772;2024-02-26T03:32:46;3.60;95.80
56478;DHT22;42382;53.210;5.772;2024-02-26T03:35:13;3.60;95.80
56478;DHT22;42382;53.210;5.772;2024-02-26T03:37:38;3.60;95.80
56478;DHT22;42382;53.210;5.772;2024-02-26T03:40:05;3.60;95.80
56478;DHT22;42382;53.210;5.772;2024-02-26T03:42:31;3.60;95.80
56478;DHT22;42382;53.210;5.772;2024-02-26T03:44:56;3.60;95.80
56478;DHT22;42382;53.210;5.772;2024-02-26T03:47:22;3.60;95.80
56478;DHT22;42382;53.210;5.772;2024-02-26T03:49:48;3.60;95.80
56478;DHT22;42382;53.210;5.772;2024-02-26T03:52:13;3.60;95.80
56478;DHT22;42382;53.210;5.772;2024-02-26T03:54:40;3.60;95.80
56478;DHT22;42382;53.210;5.772;2024-02-26T03:57:05;3.60;95.70
56478;DHT22;42382;53.210;5.772;2024-02-26T03:59:31;3.60;95.70
56478;DHT22;42382;53.210;5.772;2024-02-26T04:01:57;3.60;95.70
56478;DHT22;42382;53.210;5.772;2024-02-26T04:04:22;3.60;95.70
56478;DHT22;42382;53.210;5.772;2024-02-26T04:06:48;3.60;95.80
56478;DHT22;42382;53.210;5.772;2024-02-26T04:09:14;3.60;95.70
56478;DHT22;42382;53.210;5.772;2024-02-26T04:11:40;3.70;95.80
56478;DHT22;42382;53.210;5.772;2024-02-26T04:14:05;3.80;95.80
56478;DHT22;42382;53.210;5.772;2024-02-26T04:16:37;3.80;95.80
56478;DHT22;42382;53.210;5.772;2024-02-26T04:19:02;3.80;95.80
56478;DHT22;42382;53.210;5.772;2024-02-26T04:21:28;3.80;95.80
56478;DHT22;42382;53.210;5.772;2024-02-26T04:23:53;3.90;95.90
56478;DHT22;42382;53.210;5.772;2024-02-26T04:26:21;3.80;95.80
56478;DHT22;42382;53.210;5.772;2024-02-26T04:28:47;3.90;95.80
56478;DHT22;42382;53.210;5.772;2024-02-26T04:31:12;3.90;95.90
56478;DHT22;42382;53.210;5.772;2024-02-26T04:33:38;3.90;95.90
56478;DHT22;42382;53.210;5.772;2024-02-26T04:36:04;3.90;95.80
56478;DHT22;42382;53.210;5.772;2024-02-26T04:38:30;3.90;95.80
56478;DHT22;42382;53.210;5.772;2024-02-26T04:40:55;3.90;95.80
56478;DHT22;42382;53.210;5.772;2024-02-26T04:43:21;3.90;95.80
56478;DHT22;42382;53.210;5.772;2024-02-26T04:45:49;3.90;95.70
56478;DHT22;42382;53.210;5.772;2024-02-26T04:48:18;4.00;95.70
56478;DHT22;42382;53.210;5.772;2024-02-26T04:50:43;4.00;95.70
56478;DHT22;42382;53.210;5.772;2024-02-26T04:53:09;3.90;95.50
56478;DHT22;42382;53.210;5.772;2024-02-26T04:55:34;3.90;95.50
56478;DHT22;42382;53.210;5.772;2024-02-26T04:58:00;4.00;95.50
56478;DHT22;42382;53.210;5.772;2024-02-26T05:00:26;4.00;95.30
56478;DHT22;42382;53.210;5.772;2024-02-26T05:02:51;3.90;95.30
56478;DHT22;42382;53.210;5.772;2024-02-26T05:05:20;4.00;95.30
56478;DHT22;42382;53.210;5.772;2024-02-26T05:07:48;4.00;95.30
56478;DHT22;42382;53.210;5.772;2024-02-26T05:10:14;4.00;95.20
56478;DHT22;42382;53.210;5.772;2024-02-26T05:12:39;4.10;95.30
56478;DHT22;42382;53.210;5.772;2024-02-26T05:15:08;4.00;95.30
56478;DHT22;42382;53.210;5.772;2024-02-26T05:17:34;4.00;95.40
56478;DHT22;42382;53.210;5.772;2024-02-26T05:19:59;4.00;95.30
56478;DHT22;42382;53.210;5.772;2024-02-26T05:22:25;4.00;95.30
56478;DHT22;42382;53.210;5.772;2024-02-26T05:24:50;4.00;95.30
56478;DHT22;42382;53.210;5.772;2024-02-26T05:27:17;4.00;95.20
56478;DHT22;42382;53.210;5.772;2024-02-26T05:29:43;4.00;95.20
56478;DHT22;42382;53.210;5.772;2024-02-26T05:32:08;4.00;95.20
56478;DHT22;42382;53.210;5.772;2024-02-26T05:34:34;4.00;95.20
56478;DHT22;42382;53.210;5.772;2024-02-26T05:36:59;4.00;95.20
56478;DHT22;42382;53.210;5.772;2024-02-26T05:39:25;4.00;95.20
56478;DHT22;42382;53.210;5.772;2024-02-26T05:41:50;4.00;95.10
56478;DHT22;42382;53.210;5.772;2024-02-26T05:44:16;4.00;95.20
56478;DHT22;42382;53.210;5.772;2024-02-26T05:46:42;3.90;95.10
56478;DHT22;42382;53.210;5.772;2024-02-26T05:49:07;4.00;95.00
56478;DHT22;42382;53.210;5.772;2024-02-26T05:51:33;3.90;94.90
56478;DHT22;42382;53.210;5.772;2024-02-26T05:53:59;3.90;95.00
56478;DHT22;42382;53.210;5.772;2024-02-26T05:56:24;3.90;95.00
56478;DHT22;42382;53.210;5.772;2024-02-26T05:58:50;3.90;95.00
56478;DHT22;42382;53.210;5.772;2024-02-26T06:01:17;3.80;95.00
56478;DHT22;42382;53.210;5.772;2024-02-26T06:03:43;3.80;95.00
56478;DHT22;42382;53.210;5.772;2024-02-26T06:06:10;3.80;95.00
56478;DHT22;42382;53.210;5.772;2024-02-26T06:08:36;3.90;95.10
56478;DHT22;42382;53.210;5.772;2024-02-26T06:11:06;3.80;95.10
56478;DHT22;42382;53.210;5.772;2024-02-26T06:13:32;3.80;95.10
56478;DHT22;42382;53.210;5.772;2024-02-26T06:15:58;3.80;95.10
56478;DHT22;42382;53.210;5.772;2024-02-26T06:18:23;3.80;95.20
56478;DHT22;42382;53.210;5.772;2024-02-26T06:20:52;3.90;95.20
56478;DHT22;42382;53.210;5.772;2024-02-26T06:23:18;3.90;95.20
56478;DHT22;42382;53.210;5.772;2024-02-26T06:25:43;3.90;95.20
56478;DHT22;42382;53.210;5.772;2024-02-26T06:28:09;3.90;95.20
56478;DHT22;42382;53.210;5.772;2024-02-26T06:30:35;4.00;95.20
56478;DHT22;42382;53.210;5.772;2024-02-26T06:33:01;4.00;95.10
56478;DHT22;42382;53.210;5.772;2024-02-26T06:35:27;4.00;95.20
56478;DHT22;42382;53.210;5.772;2024-02-26T06:37:52;4.00;95.20
56478;DHT22;42382;53.210;5.772;2024-02-26T06:40:21;4.00;95.20
56478;DHT22;42382;53.210;5.772;2024-02-26T06:42:47;4.00;95.10
56478;DHT22;42382;53.210;5.772;2024-02-26T06:45:13;4.00;95.10
56478;DHT22;42382;53.210;5.772;2024-02-26T06:47:38;4.10;95.10
56478;DHT22;42382;53.210;5.772;2024-02-26T06:50:04;4.00;95.10
56478;DHT22;42382;53.210;5.772;2024-02-26T06:52:30;4.10;95.00
56478;DHT22;42382;53.210;5.772;2024-02-26T06:54:56;4.10;95.00
56478;DHT22;42382;53.210;5.772;2024-02-26T06:57:21;4.10;95.00
56478;DHT22;42382;53.210;5.772;2024-02-26T06:59:47;4.10;94.90
56478;DHT22;42382;53.210;5.772;2024-02-26T07:02:13;4.10;95.00
56478;DHT22;42382;53.210;5.772;2024-02-26T07:04:39;4.10;94.90
56478;DHT22;42382;53.210;5.772;2024-02-26T07:07:06;4.10;94.90
56478;DHT22;42382;53.210;5.772;2024-02-26T07:09:32;4.00;94.80
56478;DHT22;42382;53.210;5.772;2024-02-26T07:11:58;4.10;95.00
56478;DHT22;42382;53.210;5.772;2024-02-26T07:14:23;4.00;95.00
56478;DHT22;42382;53.210;5.772;2024-02-26T07:16:50;4.00;94.90
56478;DHT22;42382;53.210;5.772;2024-02-26T07:19:16;4.00;94.70
56478;DHT22;42382;53.210;5.772;2024-02-26T07:21:41;4.10;94.70
56478;DHT22;42382;53.210;5.772;2024-02-26T07:24:07;4.00;94.50
56478;DHT22;42382;53.210;5.772;2024-02-26T07:26:32;4.00;94.40
56478;DHT22;42382;53.210;5.772;2024-02-26T07:28:59;4.00;94.40
56478;DHT22;42382;53.210;5.772;2024-02-26T07:31:25;4.10;94.50
56478;DHT22;42382;53.210;5.772;2024-02-26T07:33:51;4.00;94.50
56478;DHT22;42382;53.210;5.772;2024-02-26T07:36:17;4.00;94.60
56478;DHT22;42382;53.210;5.772;2024-02-26T07:38:45;4.10;94.70
56478;DHT22;42382;53.210;5.772;2024-02-26T07:41:11;4.10;94.50
56478;DHT22;42382;53.210;5.772;2024-02-26T07:43:37;4.10;94.50
56478;DHT22;42382;53.210;5.772;2024-02-26T07:46:03;4.10;94.40
56478;DHT22;42382;53.210;5.772;2024-02-26T07:48:28;4.10;94.40
56478;DHT22;42382;53.210;5.772;2024-02-26T07:50:54;4.10;94.40
56478;DHT22;42382;53.210;5.772;2024-02-26T07:53:19;4.10;94.40
56478;DHT22;42382;53.210;5.772;2024-02-26T07:55:45;4.10;94.30
56478;DHT22;42382;53.210;5.772;2024-02-26T07:58:10;4.10;94.20
56478;DHT22;42382;53.210;5.772;2024-02-26T08:00:36;4.10;94.20
56478;DHT22;42382;53.210;5.772;2024-02-26T08:03:02;4.10;94.10
56478;DHT22;42382;53.210;5.772;2024-02-26T08:05:27;4.10;94.00
56478;DHT22;42382;53.210;5.772;2024-02-26T08:07:53;4.30;94.10
56478;DHT22;42382;53.210;5.772;2024-02-26T08:10:20;4.20;94.00
56478;DHT22;42382;53.210;5.772;2024-02-26T08:12:45;4.30;93.90
56478;DHT22;42382;53.210;5.772;2024-02-26T08:15:11;4.30;93.90
56478;DHT22;42382;53.210;5.772;2024-02-26T08:17:37;4.30;94.00
56478;DHT22;42382;53.210;5.772;2024-02-26T08:20:06;4.40;94.10
56478;DHT22;42382;53.210;5.772;2024-02-26T08:22:32;4.40;94.10
56478;DHT22;42382;53.210;5.772;2024-02-26T08:24:58;4.40;94.00
56478;DHT22;42382;53.210;5.772;2024-02-26T08:27:24;4.50;93.90
56478;DHT22;42382;53.210;5.772;2024-02-26T08:29:49;4.50;93.90
56478;DHT22;42382;53.210;5.772;2024-02-26T08:32:15;4.60;94.00
56478;DHT22;42382;53.210;5.772;2024-02-26T08:34:40;4.60;93.90
56478;DHT22;42382;53.210;5.772;2024-02-26T08:37:06;4.70;93.90
56478;DHT22;42382;53.210;5.772;2024-02-26T08:39:32;4.70;93.70
56478;DHT22;42382;53.210;5.772;2024-02-26T08:41:57;4.70;93.70
56478;DHT22;42382;53.210;5.772;2024-02-26T08:44:23;4.80;93.90
56478;DHT22;42382;53.210;5.772;2024-02-26T08:46:48;4.90;93.80
56478;DHT22;42382;53.210;5.772;2024-02-26T08:49:16;4.90;93.70
56478;DHT22;42382;53.210;5.772;2024-02-26T08:51:42;4.90;93.70
56478;DHT22;42382;53.210;5.772;2024-02-26T08:54:09;4.90;93.40
56478;DHT22;42382;53.210;5.772;2024-02-26T08:56:34;4.90;93.30
56478;DHT22;42382;53.210;5.772;2024-02-26T08:59:00;5.00;93.40
56478;DHT22;42382;53.210;5.772;2024-02-26T09:01:29;5.00;93.20
56478;DHT22;42382;53.210;5.772;2024-02-26T09:03:55;5.00;93.30
56478;DHT22;42382;53.210;5.772;2024-02-26T09:06:21;5.10;93.50
56478;DHT22;42382;53.210;5.772;2024-02-26T09:08:47;5.10;93.10
56478;DHT22;42382;53.210;5.772;2024-02-26T09:11:13;5.10;93.00
56478;DHT22;42382;53.210;5.772;2024-02-26T09:13:38;5.10;93.00
56478;DHT22;42382;53.210;5.772;2024-02-26T09:16:05;5.20;93.00
56478;DHT22;42382;53.210;5.772;2024-02-26T09:18:31;5.20;93.00
56478;DHT22;42382;53.210;5.772;2024-02-26T09:20:56;5.20;92.40
56478;DHT22;42382;53.210;5.772;2024-02-26T09:23:22;5.30;92.50
56478;DHT22;42382;53.210;5.772;2024-02-26T09:25:47;5.30;92.00
56478;DHT22;42382;53.210;5.772;2024-02-26T09:28:13;5.40;92.10
56478;DHT22;42382;53.210;5.772;2024-02-26T09:30:41;5.40;91.80
56478;DHT22;42382;53.210;5.772;2024-02-26T09:33:06;5.40;91.90
56478;DHT22;42382;53.210;5.772;2024-02-26T09:35:32;5.50;92.10
56478;DHT22;42382;53.210;5.772;2024-02-26T09:37:57;5.50;91.90
56478;DHT22;42382;53.210;5.772;2024-02-26T09:40:23;5.60;91.50
56478;DHT22;42382;53.210;5.772;2024-02-26T09:42:53;5.60;91.50
56478;DHT22;42382;53.210;5.772;2024-02-26T09:45:22;5.60;91.60
56478;DHT22;42382;53.210;5.772;2024-02-26T09:47:48;5.70;91.50
56478;DHT22;42382;53.210;5.772;2024-02-26T09:50:17;5.80;91.70
56478;DHT22;42382;53.210;5.772;2024-02-26T09:52:43;5.80;91.10
56478;DHT22;42382;53.210;5.772;2024-02-26T09:55:09;5.80;91.40
56478;DHT22;42382;53.210;5.772;2024-02-26T09:57:37;5.80;91.10
56478;DHT22;42382;53.210;5.772;2024-02-26T10:00:03;5.80;90.20
56478;DHT22;42382;53.210;5.772;2024-02-26T10:02:31;5.90;90.50
56478;DHT22;42382;53.210;5.772;2024-02-26T10:04:59;5.90;90.20
56478;DHT22;42382;53.210;5.772;2024-02-26T10:07:28;5.90;91.20
56478;DHT22;42382;53.210;5.772;2024-02-26T10:09:55;6.00;90.90
56478;DHT22;42382;53.210;5.772;2024-02-26T10:12:22;6.00;91.10
56478;DHT22;42382;53.210;5.772;2024-02-26T10:14:48;6.00;90.70
56478;DHT22;42382;53.210;5.772;2024-02-26T10:17:14;6.10;89.50
56478;DHT22;42382;53.210;5.772;2024-02-26T10:19:40;6.10;88.70
56478;DHT22;42382;53.210;5.772;2024-02-26T10:22:06;6.10;88.80
56478;DHT22;42382;53.210;5.772;2024-02-26T10:24:31;6.00;88.50
56478;DHT22;42382;53.210;5.772;2024-02-26T10:26:57;6.10;89.20
56478;DHT22;42382;53.210;5.772;2024-02-26T10:29:24;6.10;89.00
56478;DHT22;42382;53.210;5.772;2024-02-26T10:31:51;6.10;89.30
56478;DHT22;42382;53.210;5.772;2024-02-26T10:34:20;6.00;88.80
56478;DHT22;42382;53.210;5.772;2024-02-26T10:36:46;6.10;89.20
56478;DHT22;42382;53.210;5.772;2024-02-26T10:39:12;6.10;89.40
56478;DHT22;42382;53.210;5.772;2024-02-26T10:41:41;6.20;89.10
56478;DHT22;42382;53.210;5.772;2024-02-26T10:44:09;6.30;89.10
56478;DHT22;42382;53.210;5.772;2024-02-26T10:46:37;6.30;88.30
56478;DHT22;42382;53.210;5.772;2024-02-26T10:49:04;6.40;88.00
56478;DHT22;42382;53.210;5.772;2024-02-26T10:51:31;6.40;88.40
56478;DHT22;42382;53.210;5.772;2024-02-26T10:54:04;6.40;87.70
56478;DHT22;42382;53.210;5.772;2024-02-26T10:56:34;6.50;88.00
56478;DHT22;42382;53.210;5.772;2024-02-26T10:59:00;6.50;88.30
56478;DHT22;42382;53.210;5.772;2024-02-26T11:01:27;6.50;88.20
56478;DHT22;42382;53.210;5.772;2024-02-26T11:03:57;6.60;88.20
56478;DHT22;42382;53.210;5.772;2024-02-26T11:06:26;6.60;87.80
56478;DHT22;42382;53.210;5.772;2024-02-26T11:08:53;6.60;87.50
56478;DHT22;42382;53.210;5.772;2024-02-26T11:11:20;6.60;88.00
56478;DHT22;42382;53.210;5.772;2024-02-26T11:13:47;6.70;88.20
56478;DHT22;42382;53.210;5.772;2024-02-26T11:16:21;6.60;87.90
56478;DHT22;42382;53.210;5.772;2024-02-26T11:18:48;6.60;87.70
56478;DHT22;42382;53.210;5.772;2024-02-26T11:21:17;6.60;87.40
56478;DHT22;42382;53.210;5.772;2024-02-26T11:23:53;6.70;87.60
56478;DHT22;42382;53.210;5.772;2024-02-26T11:26:20;6.60;87.80
56478;DHT22;42382;53.210;5.772;2024-02-26T11:28:48;6.60;86.80
56478;DHT22;42382;53.210;5.772;2024-02-26T11:31:14;6.60;86.80
56478;DHT22;42382;53.210;5.772;2024-02-26T11:33:40;6.70;86.80
56478;DHT22;42382;53.210;5.772;2024-02-26T11:36:11;6.70;87.50
56478;DHT22;42382;53.210;5.772;2024-02-26T11:38:37;6.70;87.50
56478;DHT22;42382;53.210;5.772;2024-02-26T11:41:04;6.60;86.80
56478;DHT22;42382;53.210;5.772;2024-02-26T11:43:49;6.60;87.10
56478;DHT22;42382;53.210;5.772;2024-02-26T11:46:38;6.60;87.20
56478;DHT22;42382;53.210;5.772;2024-02-26T11:51:54;6.60;87.70
56478;DHT22;42382;53.210;5.772;2024-02-26T11:54:49;6.70;87.70
56478;DHT22;42382;53.210;5.772;2024-02-26T11:57:23;6.70;88.80
56478;DHT22;42382;53.210;5.772;2024-02-26T11:59:50;6.70;88.40
56478;DHT22;42382;53.210;5.772;2024-02-26T12:05:17;6.80;87.80
56478;DHT22;42382;53.210;5.772;2024-02-26T12:08:04;6.80;86.90
56478;DHT22;42382;53.210;5.772;2024-02-26T12:10:33;6.90;87.00
56478;DHT22;42382;53.210;5.772;2024-02-26T12:13:16;7.00;86.60
56478;DHT22;42382;53.210;5.772;2024-02-26T12:15:55;7.00;86.60
56478;DHT22;42382;53.210;5.772;2024-02-26T12:18:22;7.00;85.20
56478;DHT22;42382;53.210;5.772;2024-02-26T12:20:58;7.00;86.00
56478;DHT22;42382;53.210;5.772;2024-02-26T12:23:25;6.90;84.30
56478;DHT22;42382;53.210;5.772;2024-02-26T12:25:54;6.90;85.40
56478;DHT22;42382;53.210;5.772;2024-02-26T12:28:27;6.90;86.00
56478;DHT22;42382;53.210;5.772;2024-02-26T12:30:52;6.90;85.40
56478;DHT22;42382;53.210;5.772;2024-02-26T12:33:18;6.90;85.40
56478;DHT22;42382;53.210;5.772;2024-02-26T12:35:44;6.90;86.00
56478;DHT22;42382;53.210;5.772;2024-02-26T12:38:14;6.90;85.60
56478;DHT22;42382;53.210;5.772;2024-02-26T12:40:40;6.90;86.10
56478;DHT22;42382;53.210;5.772;2024-02-26T12:43:05;6.80;86.10
56478;DHT22;42382;53.210;5.772;2024-02-26T12:45:32;6.80;86.50
56478;DHT22;42382;53.210;5.772;2024-02-26T12:47:59;6.90;86.10
56478;DHT22;42382;53.210;5.772;2024-02-26T12:50:24;6.90;86.50
56478;DHT22;42382;53.210;5.772;2024-02-26T12:52:51;6.90;87.00
56478;DHT22;42382;53.210;5.772;2024-02-26T12:55:20;6.80;85.80
56478;DHT22;42382;53.210;5.772;2024-02-26T12:57:47;6.70;86.10
56478;DHT22;42382;53.210;5.772;2024-02-26T13:00:16;6.70;85.80
56478;DHT22;42382;53.210;5.772;2024-02-26T13:02:44;6.70;85.70
56478;DHT22;42382;53.210;5.772;2024-02-26T13:05:11;6.60;85.60
56478;DHT22;42382;53.210;5.772;2024-02-26T13:07:42;6.60;85.70
56478;DHT22;42382;53.210;5.772;2024-02-26T13:10:08;6.60;85.40
56478;DHT22;42382;53.210;5.772;2024-02-26T13:12:38;6.50;85.60
56478;DHT22;42382;53.210;5.772;2024-02-26T13:15:07;6.50;85.60
56478;DHT22;42382;53.210;5.772;2024-02-26T13:17:32;6.50;86.30
56478;DHT22;42382;53.210;5.772;2024-02-26T13:19:58;6.40;85.50
56478;DHT22;42382;53.210;5.772;2024-02-26T13:22:24;6.40;85.80
56478;DHT22;42382;53.210;5.772;2024-02-26T13:24:56;6.40;85.10
56478;DHT22;42382;53.210;5.772;2024-02-26T13:27:25;6.30;85.70
56478;DHT22;42382;53.210;5.772;2024-02-26T13:30:10;6.30;86.10
56478;DHT22;42382;53.210;5.772;2024-02-26T13:32:37;6.30;86.00
56478;DHT22;42382;53.210;5.772;2024-02-26T13:35:11;6.20;85.80
56478;DHT22;42382;53.210;5.772;2024-02-26T13:37:38;6.30;87.00
56478;DHT22;42382;53.210;5.772;2024-02-26T13:40:08;6.30;86.20
56478;DHT22;42382;53.210;5.772;2024-02-26T13:42:35;6.20;85.50
56478;DHT22;42382;53.210;5.772;2024-02-26T13:45:01;6.20;86.10
56478;DHT22;42382;53.210;5.772;2024-02-26T13:47:27;6.10;85.90
56478;DHT22;42382;53.210;5.772;2024-02-26T13:49:52;6.10;86.20
56478;DHT22;42382;53.210;5.772;2024-02-26T13:52:18;6.10;86.20
56478;DHT22;42382;53.210;5.772;2024-02-26T13:54:45;6.10;86.20
56478;DHT22;42382;53.210;5.772;2024-02-26T13:57:11;6.10;86.60
56478;DHT22;42382;53.210;5.772;2024-02-26T13:59:37;6.20;86.60
56478;DHT22;42382;53.210;5.772;2024-02-26T14:02:03;6.10;86.60
56478;DHT22;42382;53.210;5.772;2024-02-26T14:04:29;6.10;86.50
56478;DHT22;42382;53.210;5.772;2024-02-26T14:06:55;6.10;86.60
56478;DHT22;42382;53.210;5.772;2024-02-26T14:09:20;6.10;86.50
56478;DHT22;42382;53.210;5.772;2024-02-26T14:11:46;6.10;86.80
56478;DHT22;42382;53.210;5.772;2024-02-26T14:14:11;6.00;85.30
56478;DHT22;42382;53.210;5.772;2024-02-26T14:16:37;6.00;85.80
56478;DHT22;42382;53.210;5.772;2024-02-26T14:19:03;6.00;85.90
56478;DHT22;42382;53.210;5.772;2024-02-26T14:21:29;6.10;86.40
56478;DHT22;42382;53.210;5.772;2024-02-26T14:23:55;6.10;86.60
56478;DHT22;42382;53.210;5.772;2024-02-26T14:26:29;6.10;86.00
56478;DHT22;42382;53.210;5.772;2024-02-26T14:28:55;6.10;85.80
56478;DHT22;42382;53.210;5.772;2024-02-26T14:31:21;6.00;85.10
56478;DHT22;42382;53.210;5.772;2024-02-26T14:33:47;6.10;86.10
56478;DHT22;42382;53.210;5.772;2024-02-26T14:39:12;6.10;86.00
56478;DHT22;42382;53.210;5.772;2024-02-26T14:41:38;6.10;85.00
56478;DHT22;42382;53.210;5.772;2024-02-26T14:44:04;6.10;84.40
56478;DHT22;42382;53.210;5.772;2024-02-26T14:46:30;6.10;84.70
56478;DHT22;42382;53.210;5.772;2024-02-26T14:48:55;6.20;85.40
56478;DHT22;42382;53.210;5.772;2024-02-26T14:51:24;6.10;84.70
56478;DHT22;42382;53.210;5.772;2024-02-26T14:53:50;6.10;84.60
56478;DHT22;42382;53.210;5.772;2024-02-26T14:56:16;6.20;86.10
56478;DHT22;42382;53.210;5.772;2024-02-26T14:58:41;6.20;86.20
56478;DHT22;42382;53.210;5.772;2024-02-26T15:01:07;6.20;86.10
56478;DHT22;42382;53.210;5.772;2024-02-26T15:03:33;6.10;86.00
56478;DHT22;42382;53.210;5.772;2024-02-26T15:05:58;6.20;86.70
56478;DHT22;42382;53.210;5.772;2024-02-26T15:08:24;6.20;86.30
56478;DHT22;42382;53.210;5.772;2024-02-26T15:10:49;6.20;86.30
56478;DHT22;42382;53.210;5.772;2024-02-26T15:13:16;6.20;86.20
56478;DHT22;42382;53.210;5.772;2024-02-26T15:15:43;6.10;85.60
56478;DHT22;42382;53.210;5.772;2024-02-26T15:18:09;6.20;85.70
56478;DHT22;42382;53.210;5.772;2024-02-26T15:20:37;6.20;86.60
56478;DHT22;42382;53.210;5.772;2024-02-26T15:23:04;6.20;86.30
56478;DHT22;42382;53.210;5.772;2024-02-26T15:25:30;6.20;85.10
56478;DHT22;42382;53.210;5.772;2024-02-26T15:27:55;6.10;85.10
56478;DHT22;42382;53.210;5.772;2024-02-26T15:30:21;6.10;85.00
56478;DHT22;42382;53.210;5.772;2024-02-26T15:32:47;6.10;85.00
56478;DHT22;42382;53.210;5.772;2024-02-26T15:35:12;6.10;85.70
56478;DHT22;42382;53.210;5.772;2024-02-26T15:37:38;6.10;85.80
56478;DHT22;42382;53.210;5.772;2024-02-26T15:40:04;6.10;85.50
56478;DHT22;42382;53.210;5.772;2024-02-26T15:42:32;6.10;85.30
56478;DHT22;42382;53.210;5.772;2024-02-26T15:44:58;6.10;85.70
56478;DHT22;42382;53.210;5.772;2024-02-26T15:47:23;6.10;86.00
56478;DHT22;42382;53.210;5.772;2024-02-26T15:49:49;6.10;86.50